Time;durP1;ratioP1;P1;durP2;ratioP2;P2;SDS_P1;SDS_P2;PMS_P1;PMS_P2;Temp;Humidity;BMP_temperature;BMP_pressure;BME280_temperature;BME280_humidity;BME280_pressure;Samples;Min_cycle;Max_cycle;Signal;HPM_P1;HPM_P2
2023/04/24 00:01:10;;;;;;;0.40;0.40;;;12.50;99.90;;;12.78;nan;99489.50;5023736;28;20632;-68
2023/04/24 00:03:38;;;;;;;0.70;0.70;;;12.50;99.90;;;12.78;nan;99486.06;5029596;28;20632;-66
2023/04/24 00:06:07;;;;;;;1.80;0.50;;;12.50;99.90;;;12.77;nan;99484.44;5024607;28;20641;-67
2023/04/24 00:08:37;;;;;;;0.40;0.40;;;12.50;99.90;;;12.72;nan;99487.50;5028120;28;20625;-68
2023/04/24 00:11:04;;;;;;;0.60;0.60;;;12.40;99.90;;;12.65;nan;99480.41;5030186;28;20688;-67
2023/04/24 00:13:31;;;;;;;0.67;0.67;;;12.40;99.90;;;12.58;nan;99479.34;5016701;28;20819;-66
2023/04/24 00:15:58;;;;;;;0.40;0.40;;;12.30;99.90;;;12.58;nan;99476.75;5022017;28;20621;-66
2023/04/24 00:18:25;;;;;;;0.40;0.40;;;12.30;99.90;;;12.54;nan;99475.41;5030115;28;20751;-66
2023/04/24 00:20:52;;;;;;;0.40;0.40;;;12.30;99.90;;;12.55;nan;99479.66;5025601;28;20976;-67
2023/04/24 00:23:19;;;;;;;0.50;0.50;;;12.20;99.90;;;12.55;nan;99472.63;5031053;28;20695;-67
2023/04/24 00:25:46;;;;;;;0.80;0.80;;;12.20;99.90;;;12.54;nan;99467.56;5031151;28;20674;-67
2023/04/24 00:28:13;;;;;;;0.40;0.40;;;12.30;99.90;;;12.49;nan;99468.00;5031355;28;20636;-67
2023/04/24 00:30:40;;;;;;;0.27;0.27;;;12.20;99.90;;;12.50;nan;99466.22;5031050;28;20668;-65
2023/04/24 00:33:07;;;;;;;0.70;0.50;;;12.20;99.90;;;12.52;nan;99470.34;5031232;28;20612;-68
2023/04/24 00:35:34;;;;;;;0.40;0.40;;;12.20;99.90;;;12.54;nan;99468.38;5030944;28;20725;-66
2023/04/24 00:38:01;;;;;;;0.60;0.60;;;12.20;99.90;;;12.57;nan;99467.22;5023015;28;21227;-67
2023/04/24 00:40:28;;;;;;;1.00;0.60;;;12.30;99.90;;;12.58;nan;99466.28;5025800;28;20636;-68
2023/04/24 00:42:56;;;;;;;0.60;0.60;;;12.30;99.90;;;12.62;nan;99465.00;5029017;28;20630;-70
2023/04/24 00:45:23;;;;;;;0.70;0.70;;;12.30;99.90;;;12.65;nan;99465.50;5029957;28;20666;-66
2023/04/24 00:47:52;;;;;;;0.60;0.60;;;12.30;99.90;;;12.65;nan;99467.31;5030530;28;20637;-66
2023/04/24 00:50:21;;;;;;;0.57;0.57;;;12.40;99.90;;;12.72;nan;99466.56;5009101;28;20645;-67
2023/04/24 00:52:48;;;;;;;0.50;0.50;;;12.40;99.90;;;12.73;nan;99475.25;5027078;28;20632;-68
2023/04/24 00:55:15;;;;;;;0.70;0.70;;;12.50;99.90;;;12.77;nan;99463.50;5029093;28;20667;-66
2023/04/24 00:57:44;;;;;;;0.50;0.50;;;12.50;99.90;;;12.75;nan;99460.19;5027876;28;20636;-68
2023/04/24 01:00:12;;;;;;;0.60;0.60;;;12.50;99.90;;;12.69;nan;99466.03;5025035;28;20637;-66
2023/04/24 01:02:45;;;;;;;0.30;0.30;;;12.40;99.90;;;12.70;nan;99465.06;5018072;28;21183;-65
2023/04/24 01:05:14;;;;;;;0.70;0.70;;;12.40;99.90;;;12.72;nan;99455.25;5030794;28;20657;-70
2023/04/24 01:07:45;;;;;;;0.50;0.50;;;12.40;99.90;;;12.69;nan;99450.34;5028961;28;20678;-68
2023/04/24 01:10:14;;;;;;;0.50;0.50;;;12.40;99.90;;;12.68;nan;99456.53;5025930;28;20636;-68
2023/04/24 01:12:41;;;;;;;0.40;0.40;;;12.40;99.90;;;12.61;nan;99456.31;5016892;28;20638;-67
2023/04/24 01:15:09;;;;;;;0.60;0.60;;;12.30;99.90;;;12.56;nan;99465.59;5027222;28;20672;-68
2023/04/24 01:17:38;;;;;;;0.60;0.60;;;12.30;99.90;;;12.51;nan;99465.22;5028404;28;21253;-67
2023/04/24 01:20:06;;;;;;;0.40;0.40;;;12.20;99.90;;;12.53;nan;99465.91;5029419;28;20727;-67
2023/04/24 01:22:34;;;;;;;0.60;0.60;;;12.20;99.90;;;12.51;nan;99468.66;5028799;28;20674;-67
2023/04/24 01:25:02;;;;;;;0.30;0.30;;;12.20;99.90;;;12.51;nan;99473.06;5014425;28;20649;-66
2023/04/24 01:27:29;;;;;;;0.67;0.47;;;12.20;99.90;;;12.53;nan;99471.97;5019262;28;20637;-67
2023/04/24 01:29:57;;;;;;;1.00;0.70;;;12.20;99.90;;;12.57;nan;99475.91;5022480;28;21015;-67
2023/04/24 01:32:25;;;;;;;0.50;0.50;;;12.30;99.90;;;12.54;nan;99467.56;5030639;28;21050;-67
2023/04/24 01:34:52;;;;;;;0.30;0.30;;;12.20;99.90;;;12.54;nan;99463.16;5028410;28;20702;-67
2023/04/24 01:37:19;;;;;;;0.57;0.57;;;12.30;99.90;;;12.54;nan;99457.09;5029990;28;20612;-67
2023/04/24 01:39:46;;;;;;;0.40;0.40;;;12.30;99.90;;;12.56;nan;99463.00;5030112;28;20981;-68
2023/04/24 01:42:14;;;;;;;0.40;0.40;;;12.30;99.90;;;12.60;nan;99459.94;5030118;28;20673;-68
2023/04/24 01:44:42;;;;;;;1.80;0.70;;;12.30;99.90;;;12.62;nan;99457.16;5028565;28;21231;-68
2023/04/24 01:47:09;;;;;;;0.40;0.40;;;12.30;99.90;;;12.60;nan;99459.09;5029072;28;20616;-69
2023/04/24 01:49:38;;;;;;;0.50;0.50;;;12.30;99.90;;;12.62;nan;99462.38;5025837;28;20635;-67
2023/04/24 01:52:06;;;;;;;0.30;0.30;;;12.30;99.90;;;12.60;nan;99459.94;5019666;28;20665;-68
2023/04/24 01:54:33;;;;;;;0.70;0.70;;;12.30;99.90;;;12.52;nan;99456.41;5016173;28;20652;-69
2023/04/24 01:57:01;;;;;;;0.40;0.40;;;12.30;99.90;;;12.48;nan;99466.34;5030540;28;21192;-66
2023/04/24 01:59:30;;;;;;;0.50;0.50;;;12.20;99.90;;;12.54;nan;99451.84;5030425;28;20640;-68
2023/04/24 02:01:57;;;;;;;1.63;1.00;;;12.20;99.90;;;12.53;nan;99447.59;5032456;28;20701;-66
2023/04/24 02:04:24;;;;;;;0.40;0.40;;;12.30;99.90;;;12.54;nan;99450.06;5033733;28;21324;-66
2023/04/24 02:06:51;;;;;;;1.13;0.60;;;12.30;99.90;;;12.53;nan;99453.66;5032068;28;20625;-65
2023/04/24 02:09:18;;;;;;;0.57;0.57;;;12.20;99.90;;;12.57;nan;99457.59;5033446;28;20694;-67
2023/04/24 02:11:45;;;;;;;0.60;0.60;;;12.30;99.90;;;12.56;nan;99458.59;5027333;28;21125;-67
2023/04/24 02:14:12;;;;;;;4.33;0.97;;;12.30;99.90;;;12.57;nan;99468.06;5027179;28;20664;-67
2023/04/24 02:16:39;;;;;;;0.63;0.63;;;12.30;99.90;;;12.53;nan;99466.72;5025975;22;20696;-66
2023/04/24 02:19:06;;;;;;;0.70;0.70;;;12.20;99.90;;;12.50;nan;99472.25;5008500;28;20617;-67
2023/04/24 02:21:33;;;;;;;1.77;1.23;;;12.20;99.90;;;12.52;nan;99482.59;5003790;28;20633;-66
2023/04/24 02:24:00;;;;;;;1.00;1.00;;;12.20;99.90;;;12.53;nan;99476.38;5007980;28;20641;-66
2023/04/24 02:26:27;;;;;;;1.17;0.90;;;12.20;99.90;;;12.56;nan;99489.97;5014090;28;20661;-67
2023/04/24 02:28:54;;;;;;;2.13;1.10;;;12.30;99.90;;;12.61;nan;99502.59;5012976;28;20645;-66
2023/04/24 02:31:21;;;;;;;0.90;0.90;;;12.30;99.90;;;12.61;nan;99494.75;5014575;28;21232;-66
2023/04/24 02:33:48;;;;;;;0.70;0.70;;;12.40;99.90;;;12.64;nan;99504.91;5012861;28;20625;-66
2023/04/24 02:36:15;;;;;;;1.00;1.00;;;12.40;99.90;;;12.60;nan;99496.56;5013719;28;20657;-67
2023/04/24 02:38:42;;;;;;;5.13;0.70;;;12.40;99.90;;;12.59;nan;99499.31;5013149;28;21451;-66
2023/04/24 02:41:09;;;;;;;1.27;0.77;;;12.40;99.90;;;12.56;nan;99500.44;5013477;28;21065;-66
2023/04/24 02:43:36;;;;;;;0.60;0.60;;;12.30;99.90;;;12.61;nan;99502.59;5014854;28;21181;-67
2023/04/24 02:46:03;;;;;;;0.70;0.70;;;12.40;99.90;;;12.61;nan;99503.41;5012789;28;21083;-66
2023/04/24 02:48:30;;;;;;;0.53;0.50;;;12.40;99.90;;;12.62;nan;99509.47;5013438;28;20641;-67
2023/04/24 02:50:58;;;;;;;0.80;0.80;;;12.40;99.90;;;12.57;nan;99515.16;5012158;28;20679;-67
2023/04/24 02:53:25;;;;;;;0.80;0.80;;;12.40;99.90;;;12.55;nan;99511.03;5014124;28;20709;-67
2023/04/24 02:55:52;;;;;;;1.33;0.70;;;12.30;99.90;;;12.57;nan;99516.94;5012755;28;21075;-66
2023/04/24 02:58:19;;;;;;;0.70;0.70;;;12.30;99.90;;;12.53;nan;99513.00;5014055;28;20621;-66
2023/04/24 03:00:47;;;;;;;0.73;0.70;;;12.30;99.90;;;12.48;nan;99523.91;5012748;28;20637;-68
2023/04/24 03:03:15;;;;;;;0.70;0.70;;;12.30;99.90;;;12.46;nan;99521.44;5014564;28;20621;-66
2023/04/24 03:05:42;;;;;;;0.70;0.70;;;12.20;99.90;;;12.39;nan;99524.81;5013470;28;20661;-66
2023/04/24 03:08:10;;;;;;;0.80;0.77;;;12.20;99.90;;;12.33;nan;99520.16;5013403;28;20638;-69
2023/04/24 03:10:37;;;;;;;0.80;0.70;;;12.10;99.90;;;12.30;nan;99520.47;5010423;28;20629;-67
2023/04/24 03:13:04;;;;;;;1.00;1.00;;;12.10;99.90;;;12.28;nan;99512.78;5008796;28;21467;-66
2023/04/24 03:15:31;;;;;;;0.93;0.93;;;12.10;99.90;;;12.29;nan;99503.94;5009512;28;21090;-67
2023/04/24 03:17:58;;;;;;;0.80;0.77;;;12.10;99.90;;;12.31;nan;99503.78;5010176;28;20633;-66
2023/04/24 03:20:25;;;;;;;1.03;1.03;;;12.10;99.90;;;12.28;nan;99497.09;5001792;28;21022;-67
2023/04/24 03:22:52;;;;;;;1.20;1.20;;;12.10;99.90;;;12.28;nan;99509.31;4995827;28;20630;-66
2023/04/24 03:25:19;;;;;;;0.90;0.90;;;12.00;99.90;;;12.29;nan;99500.50;5012109;28;21241;-66
2023/04/24 03:27:46;;;;;;;1.10;1.10;;;12.10;99.90;;;12.29;nan;99513.56;5012721;28;21203;-66
2023/04/24 03:30:13;;;;;;;1.10;1.00;;;12.10;99.90;;;12.24;nan;99514.03;5013294;28;20671;-66
2023/04/24 03:32:40;;;;;;;1.07;1.07;;;12.00;99.90;;;12.21;nan;99526.56;5012956;28;20993;-66
2023/04/24 03:35:08;;;;;;;1.03;1.03;;;12.00;99.90;;;12.18;nan;99521.66;5013553;28;20645;-67
2023/04/24 03:37:35;;;;;;;1.50;1.50;;;12.00;99.90;;;12.17;nan;99539.13;5012537;28;20691;-67
2023/04/24 03:40:02;;;;;;;1.73;1.63;;;12.00;99.90;;;12.17;nan;99535.69;5013646;28;20686;-66
2023/04/24 03:42:29;;;;;;;1.30;1.20;;;12.00;99.90;;;12.20;nan;99549.28;5010656;28;20642;-66
2023/04/24 03:44:56;;;;;;;1.20;1.20;;;12.00;99.90;;;12.20;nan;99551.88;5012748;28;20625;-67
2023/04/24 03:47:23;;;;;;;1.23;1.23;;;12.00;99.90;;;12.19;nan;99560.72;5011880;28;20672;-68
2023/04/24 03:49:50;;;;;;;0.93;0.93;;;12.00;99.90;;;12.17;nan;99567.88;5009596;28;20638;-66
2023/04/24 03:52:17;;;;;;;1.50;1.43;;;12.00;99.90;;;12.08;nan;99560.91;5011818;28;20732;-68
2023/04/24 03:54:44;;;;;;;1.00;1.00;;;11.90;99.90;;;11.97;nan;99562.91;5011043;28;21016;-66
2023/04/24 03:57:11;;;;;;;1.50;1.40;;;11.80;99.90;;;11.91;nan;99561.69;5005443;28;20633;-66
2023/04/24 03:59:38;;;;;;;0.90;0.90;;;11.70;99.90;;;11.84;nan;99559.78;5011179;28;21010;-68
2023/04/24 04:02:05;;;;;;;1.30;1.30;;;11.60;99.90;;;11.81;nan;99563.53;5011282;28;20637;-66
2023/04/24 04:04:32;;;;;;;1.13;1.13;;;11.60;99.90;;;11.77;nan;99564.78;5011172;28;20641;-66
2023/04/24 04:07:01;;;;;;;2.87;1.53;;;11.60;99.90;;;11.74;nan;99567.66;5012506;28;21302;-66
2023/04/24 04:09:29;;;;;;;0.93;0.93;;;11.50;99.90;;;11.72;nan;99574.81;5010918;28;20651;-66
2023/04/24 04:11:56;;;;;;;1.20;1.20;;;11.50;99.90;;;11.68;nan;99576.91;5010962;28;20665;-66
2023/04/24 04:14:23;;;;;;;1.20;1.20;;;11.50;99.90;;;11.65;nan;99574.53;5011905;28;20621;-67
2023/04/24 04:16:51;;;;;;;1.67;1.43;;;11.50;99.90;;;11.63;nan;99575.63;5008397;28;20684;-66
2023/04/24 04:19:21;;;;;;;1.10;1.10;;;11.50;99.90;;;11.58;nan;99586.50;5011680;28;20625;-70
2023/04/24 04:21:52;;;;;;;0.93;0.93;;;11.40;99.90;;;11.55;nan;99578.97;5010983;28;20846;-70
2023/04/24 04:24:23;;;;;;;1.00;1.00;;;11.40;99.90;;;11.54;nan;99598.22;5010531;28;20633;-66
2023/04/24 04:26:52;;;;;;;1.10;1.10;;;11.30;99.90;;;11.52;nan;99588.91;5010161;28;20665;-66
2023/04/24 04:29:18;;;;;;;1.20;1.20;;;11.40;99.90;;;11.49;nan;99604.84;5011272;28;21189;-67
2023/04/24 04:31:45;;;;;;;0.97;0.97;;;11.30;99.90;;;11.44;nan;99599.19;5010433;28;20707;-68
2023/04/24 04:34:13;;;;;;;1.33;1.33;;;11.30;99.90;;;11.38;nan;99607.59;5009770;28;21200;-66
2023/04/24 04:36:41;;;;;;;1.50;1.40;;;11.20;99.90;;;11.34;nan;99607.06;5010255;28;20661;-68
2023/04/24 04:39:08;;;;;;;1.43;1.43;;;11.20;99.90;;;11.32;nan;99610.78;5012083;28;20664;-66
2023/04/24 04:41:35;;;;;;;1.33;1.33;;;11.10;99.90;;;11.30;nan;99605.69;5010740;28;20663;-66
2023/04/24 04:44:04;;;;;;;1.20;1.20;;;11.10;99.90;;;11.30;nan;99610.09;5009690;28;20622;-68
2023/04/24 04:46:37;;;;;;;1.37;1.37;;;11.10;99.90;;;11.29;nan;99616.25;5006493;28;20698;-68
2023/04/24 04:49:04;;;;;;;0.93;0.93;;;11.10;99.90;;;11.28;nan;99614.63;5009332;28;21067;-68
2023/04/24 04:51:31;;;;;;;2.77;1.53;;;11.10;99.90;;;11.25;nan;99614.88;5011312;28;20637;-66
2023/04/24 04:53:58;;;;;;;1.63;1.53;;;11.10;99.90;;;11.27;nan;99620.78;5010812;28;20747;-68
2023/04/24 04:56:25;;;;;;;2.30;2.10;;;11.10;99.90;;;11.36;nan;99633.03;5006306;28;20661;-66
2023/04/24 04:58:53;;;;;;;1.70;1.60;;;11.20;99.90;;;11.49;nan;99636.19;5010757;28;21011;-66
2023/04/24 05:01:19;;;;;;;2.10;2.00;;;11.30;99.90;;;11.62;nan;99641.94;5010630;28;20633;-66
2023/04/24 05:03:46;;;;;;;1.67;1.57;;;11.40;99.90;;;11.83;nan;99652.22;5011481;28;20628;-66
2023/04/24 05:06:14;;;;;;;2.07;1.97;;;11.60;99.90;;;12.09;nan;99650.63;5010277;28;20661;-66
2023/04/24 05:08:41;;;;;;;1.90;1.80;;;11.80;99.90;;;12.45;nan;99650.63;5010660;28;20667;-66
2023/04/24 05:11:08;;;;;;;2.00;1.90;;;12.20;99.90;;;12.80;nan;99667.34;5010440;28;20667;-66
2023/04/24 05:13:35;;;;;;;2.50;2.40;;;12.50;99.90;;;13.05;nan;99664.03;5011082;28;20661;-67
2023/04/24 05:16:07;;;;;;;2.03;1.93;;;12.80;99.90;;;13.24;nan;99667.31;5009681;28;20669;-66
2023/04/24 05:18:34;;;;;;;2.50;2.40;;;13.00;99.90;;;13.48;nan;99666.69;5010540;28;20621;-67
2023/04/24 05:21:01;;;;;;;2.50;2.40;;;13.30;99.90;;;13.73;nan;99668.53;5006106;28;21057;-66
2023/04/24 05:23:28;;;;;;;2.43;2.33;;;13.50;99.90;;;13.84;nan;99662.22;5007812;28;20638;-69
2023/04/24 05:25:55;;;;;;;2.27;2.17;;;13.60;99.90;;;13.85;nan;99675.19;5006072;28;20653;-67
2023/04/24 05:28:22;;;;;;;1.63;1.53;;;13.60;99.90;;;13.93;nan;99682.25;5013953;28;20799;-67
2023/04/24 05:30:49;;;;;;;1.60;1.50;;;13.70;99.90;;;14.02;nan;99682.16;5011101;28;20644;-68
2023/04/24 05:33:16;;;;;;;2.20;2.10;;;13.80;99.90;;;14.15;nan;99694.03;5011400;28;21267;-68
2023/04/24 05:35:46;;;;;;;2.40;2.20;;;13.90;99.90;;;14.11;nan;99679.59;5011124;28;20645;-68
2023/04/24 05:38:14;;;;;;;3.10;2.90;;;13.90;99.90;;;14.17;nan;99676.34;5011092;28;20633;-68
2023/04/24 05:40:41;;;;;;;2.83;2.63;;;14.00;99.90;;;14.60;nan;99682.31;5011516;28;20613;-68
2023/04/24 05:43:08;;;;;;;3.80;2.83;;;14.30;99.90;;;15.25;nan;99679.81;5004499;28;20641;-69
2023/04/24 05:45:35;;;;;;;4.57;2.90;;;14.90;99.90;;;15.89;nan;99687.75;5003792;28;20656;-68
2023/04/24 05:48:03;;;;;;;2.60;2.40;;;15.50;99.90;;;16.55;nan;99687.41;5005722;28;20642;-68
2023/04/24 05:50:30;;;;;;;3.00;2.80;;;16.20;99.90;;;16.94;nan;99690.03;5004902;28;20637;-70
2023/04/24 05:53:01;;;;;;;3.10;2.90;;;16.70;99.90;;;16.99;nan;99695.59;5005811;28;21347;-68
2023/04/24 05:55:30;;;;;;;2.93;2.80;;;16.80;99.90;;;16.70;nan;99701.50;5005590;28;20941;-68
2023/04/24 05:57:57;;;;;;;2.47;2.37;;;16.60;99.90;;;16.42;nan;99697.63;5008578;28;20638;-68
2023/04/24 06:00:25;;;;;;;2.17;1.97;;;16.40;99.90;;;16.06;nan;99699.03;5005695;28;20645;-68
2023/04/24 06:02:52;;;;;;;2.20;2.10;;;16.00;99.90;;;15.86;nan;99695.97;5009561;28;21019;-68
2023/04/24 06:05:20;;;;;;;2.23;2.03;;;15.80;99.90;;;15.56;nan;99704.53;5008721;28;21368;-68
2023/04/24 06:07:48;;;;;;;3.20;2.90;;;15.50;99.90;;;15.34;nan;99695.44;5009607;28;20641;-68
2023/04/24 06:10:15;;;;;;;2.90;2.70;;;15.30;99.90;;;15.14;nan;99706.44;5010734;28;20641;-70
2023/04/24 06:12:42;;;;;;;4.03;3.03;;;15.00;99.90;;;15.23;nan;99700.19;5004892;28;20677;-68
2023/04/24 06:15:10;;;;;;;3.20;2.93;;;15.00;99.90;;;15.30;nan;99707.28;5003938;28;20743;-68
2023/04/24 06:17:37;;;;;;;3.37;3.07;;;15.10;99.90;;;15.29;nan;99705.63;5007977;28;21259;-70
2023/04/24 06:20:06;;;;;;;5.20;3.03;;;15.10;99.90;;;15.22;nan;99702.00;5009573;28;20657;-68
2023/04/24 06:22:33;;;;;;;2.90;2.80;;;15.10;99.90;;;15.02;nan;99708.53;5010223;28;20635;-70
2023/04/24 06:25:01;;;;;;;3.17;2.97;;;14.90;99.90;;;14.73;nan;99714.22;5009598;28;20641;-69
2023/04/24 06:27:28;;;;;;;2.80;1.67;;;14.60;99.90;;;14.42;nan;99714.88;5005006;28;20633;-67
2023/04/24 06:29:55;;;;;;;2.20;2.10;;;14.30;99.90;;;14.08;nan;99716.59;5004846;28;20651;-69
2023/04/24 06:32:24;;;;;;;2.77;2.57;;;14.00;99.90;;;13.78;nan;99715.25;5004041;28;21050;-67
2023/04/24 06:34:52;;;;;;;2.40;2.20;;;13.70;99.90;;;13.54;nan;99723.78;5009417;28;21006;-68
2023/04/24 06:37:20;;;;;;;3.27;2.77;;;13.40;99.90;;;13.46;nan;99718.44;5009788;28;20637;-70
2023/04/24 06:39:47;;;;;;;1.80;1.70;;;13.30;99.90;;;13.37;nan;99711.50;5010028;28;20636;-68
2023/04/24 06:42:14;;;;;;;2.60;2.40;;;13.20;99.90;;;13.25;nan;99707.44;5009801;28;21085;-67
2023/04/24 06:44:42;;;;;;;2.40;2.20;;;13.10;99.90;;;13.18;nan;99722.13;5009392;28;21224;-68
2023/04/24 06:47:15;;;;;;;2.50;2.40;;;13.00;99.90;;;13.15;nan;99722.41;5009886;28;21276;-69
2023/04/24 06:49:42;;;;;;;2.10;2.00;;;13.00;99.90;;;13.30;nan;99725.31;5015964;28;20691;-68
2023/04/24 06:52:09;;;;;;;2.10;2.00;;;13.00;99.90;;;13.44;nan;99728.25;5014045;28;20665;-68
2023/04/24 06:54:36;;;;;;;2.13;2.03;;;13.20;99.90;;;13.59;nan;99721.50;5008964;28;20700;-68
2023/04/24 06:57:03;;;;;;;1.37;1.30;;;13.40;99.90;;;13.74;nan;99725.22;5013022;28;20653;-68
2023/04/24 06:59:30;;;;;;;1.47;1.40;;;13.50;99.90;;;13.86;nan;99721.38;5011103;28;20633;-68
2023/04/24 07:01:57;;;;;;;1.50;1.27;;;13.60;99.90;;;14.07;nan;99725.47;5013388;28;20628;-68
2023/04/24 07:04:24;;;;;;;1.40;1.30;;;13.90;99.90;;;14.85;nan;99734.91;5012109;28;20644;-68
2023/04/24 07:06:55;;;;;;;1.63;1.53;;;14.40;99.90;;;16.20;nan;99733.41;5007730;28;20665;-68
2023/04/24 07:09:23;;;;;;;0.87;0.87;;;15.60;99.90;;;17.77;nan;99746.34;5002975;28;20746;-68
2023/04/24 07:11:52;;;;;;;1.30;1.30;;;17.10;99.90;;;19.09;nan;99745.41;4996837;28;20621;-68
2023/04/24 07:14:20;;;;;;;2.53;1.20;;;18.60;99.90;;;18.97;nan;99751.38;5013510;28;20741;-68
2023/04/24 07:16:47;;;;;;;1.40;1.10;;;18.80;99.90;;;18.92;nan;99754.56;5012634;28;20660;-67
2023/04/24 07:19:14;;;;;;;2.77;1.73;;;18.70;99.90;;;18.59;nan;99745.41;5012896;28;20641;-69
2023/04/24 07:21:41;;;;;;;1.70;1.60;;;18.40;99.90;;;18.59;nan;99753.34;5012983;28;20636;-68
2023/04/24 07:24:10;;;;;;;1.40;1.40;;;18.40;99.90;;;18.97;nan;99746.09;5012924;28;20633;-69
2023/04/24 07:26:39;;;;;;;1.13;1.10;;;18.70;99.90;;;19.77;nan;99752.03;5012684;28;20652;-66
2023/04/24 07:29:07;;;;;;;0.67;0.67;;;19.50;99.90;;;20.13;nan;99734.19;5012019;28;20633;-65
2023/04/24 07:31:34;;;;;;;1.60;1.50;;;19.90;96.90;;;20.71;nan;99749.69;5012473;28;20641;-66
2023/04/24 07:34:01;;;;;;;1.40;1.40;;;20.40;96.80;;;21.49;nan;99751.00;5012698;28;20673;-68
2023/04/24 07:36:28;;;;;;;1.40;1.40;;;21.20;94.20;;;21.97;nan;99741.06;5009605;28;20664;-72
2023/04/24 07:38:56;;;;;;;1.60;1.60;;;21.70;92.20;;;22.52;nan;99753.88;4993123;28;20614;-67
2023/04/24 07:41:24;;;;;;;1.40;1.40;;;22.30;89.80;;;22.54;nan;99745.69;4999807;28;21304;-70
2023/04/24 07:43:53;;;;;;;1.20;1.20;;;22.50;85.70;;;22.72;nan;99752.00;4993359;28;21197;-70
2023/04/24 07:46:21;;;;;;;1.13;1.13;;;22.60;84.00;;;23.32;nan;99755.22;5008082;28;20664;-68
2023/04/24 07:48:48;;;;;;;1.10;1.10;;;23.20;82.10;;;23.94;nan;99765.09;5012625;28;20632;-68
2023/04/24 07:51:27;;;;;;;1.67;1.67;;;23.90;78.80;;;24.33;nan;99770.09;5012233;28;20635;-69
2023/04/24 07:53:57;;;;;;;1.30;1.10;;;24.50;74.70;;;25.13;nan;99782.38;5012537;28;20666;-69
2023/04/24 07:56:24;;;;;;;1.40;1.40;;;25.20;71.50;;;25.69;nan;99785.53;5011024;28;20735;-70
2023/04/24 07:58:53;;;;;;;1.27;1.27;;;26.30;66.40;;;26.21;nan;99783.91;5006428;28;20644;-71
2023/04/24 08:01:20;;;;;;;1.27;1.27;;;26.60;65.90;;;27.02;nan;99783.84;5011410;28;20633;-70
2023/04/24 08:03:51;;;;;;;2.03;1.50;;;27.40;63.50;;;27.36;nan;99771.44;5011690;28;20633;-71
2023/04/24 08:06:18;;;;;;;2.53;1.50;;;27.70;61.80;;;27.31;nan;99774.78;5011694;28;20692;-70
2023/04/24 08:08:45;;;;;;;0.77;0.77;;;27.90;58.60;;;27.36;nan;99777.59;5009331;28;20693;-70
2023/04/24 08:11:12;;;;;;;1.10;1.10;;;27.90;57.70;;;26.77;nan;99777.97;5011422;28;20633;-68
2023/04/24 08:13:39;;;;;;;1.37;1.37;;;27.40;57.70;;;26.69;nan;99781.78;5006242;28;20677;-68
2023/04/24 08:16:06;;;;;;;1.40;1.37;;;27.30;57.50;;;26.96;nan;99787.47;5009320;28;20723;-68
2023/04/24 08:18:35;;;;;;;3.37;2.80;;;27.50;57.30;;;27.17;nan;99788.69;5007091;28;20699;-67
2023/04/24 08:21:02;;;;;;;1.70;1.70;;;27.80;55.40;;;27.05;nan;99801.28;5003962;28;20637;-70
2023/04/24 08:23:29;;;;;;;1.70;1.60;;;27.50;55.40;;;27.17;nan;99804.75;5003887;28;21217;-67
2023/04/24 08:25:57;;;;;;;1.40;1.37;;;27.70;55.60;;;27.41;nan;99811.69;5005215;28;20720;-67
2023/04/24 08:28:25;;;;;;;3.07;1.10;;;27.80;55.40;;;28.10;nan;99811.38;5009514;28;21201;-68
2023/04/24 08:30:54;;;;;;;1.87;1.30;;;28.50;54.20;;;28.33;nan;99816.56;5010982;28;20637;-68
2023/04/24 08:33:24;;;;;;;1.47;1.40;;;28.90;53.80;;;27.82;nan;99821.28;5011629;28;20706;-66
2023/04/24 08:35:52;;;;;;;1.57;1.57;;;28.60;52.50;;;27.10;nan;99820.16;5007706;28;20657;-65
2023/04/24 08:38:19;;;;;;;1.63;1.60;;;27.70;53.90;;;26.05;nan;99828.13;5005129;28;20629;-68
2023/04/24 08:40:49;;;;;;;2.03;1.90;;;26.80;54.40;;;24.72;nan;99830.22;5008995;28;21302;-71
2023/04/24 08:43:16;;;;;;;2.00;1.90;;;25.30;55.70;;;23.58;nan;99826.97;5017575;28;20638;-70
2023/04/24 08:45:44;;;;;;;1.87;1.77;;;24.10;58.00;;;22.88;nan;99826.00;5009189;28;20653;-69
2023/04/24 08:48:11;;;;;;;1.30;1.30;;;23.20;59.50;;;22.58;nan;99829.31;5010808;28;21219;-69
2023/04/24 08:50:50;;;;;;;0.63;0.63;;;22.70;60.70;;;22.66;nan;99827.28;5004762;28;20630;-68
2023/04/24 08:53:19;;;;;;;1.93;1.50;;;22.80;60.50;;;24.28;nan;99824.06;5007300;28;21014;-68
2023/04/24 08:55:48;;;;;;;1.20;1.20;;;24.00;60.10;;;25.53;nan;99828.09;5008648;28;20665;-68
2023/04/24 08:58:17;;;;;;;1.90;1.87;;;25.50;57.30;;;26.39;nan;99839.94;5005277;28;21197;-68
2023/04/24 09:00:46;;;;;;;1.63;1.63;;;26.30;56.70;;;26.77;nan;99839.50;5009248;28;21223;-66
2023/04/24 09:03:15;;;;;;;2.07;1.97;;;27.00;55.50;;;25.99;nan;99839.75;5001284;28;20634;-68
2023/04/24 09:05:46;;;;;;;2.83;1.47;;;26.50;54.90;;;24.81;nan;99850.28;5008992;28;20657;-67
2023/04/24 09:08:14;;;;;;;2.03;1.70;;;25.30;56.30;;;23.34;nan;99847.16;5005072;28;20642;-69
2023/04/24 09:10:41;;;;;;;3.70;1.63;;;23.80;58.50;;;22.75;nan;99835.84;5023737;28;20625;-67
2023/04/24 09:13:09;;;;;;;1.37;1.37;;;23.00;60.50;;;23.50;nan;99843.22;5008411;28;21223;-66
2023/04/24 09:15:38;;;;;;;1.80;1.70;;;23.30;61.10;;;25.21;nan;99846.13;5006991;28;20669;-68
2023/04/24 09:18:05;;;;;;;1.40;1.30;;;25.00;58.80;;;26.38;nan;99856.25;5007853;28;20633;-68
2023/04/24 09:20:33;;;;;;;2.60;1.97;;;26.40;56.60;;;25.81;nan;99852.38;5007814;28;21021;-68
2023/04/24 09:23:00;;;;;;;1.60;1.50;;;26.20;56.10;;;25.00;nan;99843.94;5006264;28;20634;-67
2023/04/24 09:25:35;;;;;;;1.60;1.50;;;25.40;56.90;;;22.97;nan;99839.91;5006525;28;20661;-68
2023/04/24 09:28:04;;;;;;;1.50;1.40;;;23.60;59.20;;;22.27;nan;99843.25;5010310;28;20629;-66
2023/04/24 09:30:31;;;;;;;1.93;1.70;;;22.60;61.30;;;21.23;nan;99849.91;5010054;28;20699;-68
2023/04/24 09:33:15;;;;;;;2.07;1.97;;;21.60;62.90;;;20.16;nan;99855.66;5008816;28;20665;-67
2023/04/24 09:35:49;;;;;;;1.93;1.70;;;20.50;64.80;;;19.39;nan;99859.09;5008898;28;21252;-67
2023/04/24 09:38:16;;;;;;;2.07;1.97;;;19.70;66.10;;;18.71;nan;99865.47;5008945;28;21052;-68
2023/04/24 09:40:43;;;;;;;1.87;1.77;;;18.90;67.80;;;18.18;nan;99865.59;5008213;28;20984;-68
2023/04/24 09:43:11;;;;;;;1.43;1.30;;;18.30;69.60;;;17.66;nan;99865.47;5006681;28;20641;-71
2023/04/24 09:45:40;;;;;;;0.93;0.93;;;17.80;71.00;;;17.22;nan;99875.72;5009829;28;20696;-69
2023/04/24 09:48:10;;;;;;;2.07;1.87;;;17.20;73.10;;;16.82;nan;99870.56;5007016;28;20698;-69
2023/04/24 09:50:37;;;;;;;2.20;2.10;;;16.80;74.60;;;16.63;nan;99876.19;5000143;28;20690;-68
2023/04/24 09:53:10;;;;;;;3.30;1.90;;;16.50;76.00;;;16.48;nan;99872.56;5002764;28;20673;-69
2023/04/24 09:55:46;;;;;;;1.40;1.40;;;16.30;76.80;;;16.33;nan;99884.75;5007405;28;21087;-69
2023/04/24 09:58:13;;;;;;;2.10;1.50;;;16.10;78.40;;;16.39;nan;99889.34;5004342;28;20641;-68
2023/04/24 10:00:40;;;;;;;1.60;1.50;;;16.10;79.70;;;16.44;nan;99885.22;5002987;28;20629;-69
2023/04/24 10:03:07;;;;;;;1.30;1.30;;;16.20;80.50;;;16.67;nan;99888.03;5003136;28;20642;-69
2023/04/24 10:05:37;;;;;;;1.73;1.73;;;16.30;80.90;;;18.40;nan;99891.97;5008603;28;20688;-69
2023/04/24 10:08:10;;;;;;;1.40;1.37;;;17.70;80.50;;;19.75;nan;99886.38;5002294;28;20633;-67
2023/04/24 10:10:41;;;;;;;1.00;1.00;;;19.20;75.50;;;19.92;nan;99891.28;5005085;28;20619;-67
2023/04/24 10:13:14;;;;;;;1.83;1.40;;;19.70;72.30;;;19.52;nan;99896.31;5007926;28;20736;-70
2023/04/24 10:15:42;;;;;;;0.40;0.40;;;19.30;72.40;;;19.43;nan;99906.16;5005574;28;20643;-69
2023/04/24 10:18:10;;;;;;;1.20;1.10;;;19.10;73.80;;;20.22;nan;99899.13;5005254;28;21193;-68
2023/04/24 10:20:40;;;;;;;1.17;1.03;;;19.60;73.80;;;21.00;nan;99909.56;4997991;28;20650;-69
2023/04/24 10:23:07;;;;;;;1.57;1.47;;;20.30;72.70;;;21.12;nan;99900.88;5024284;28;20633;-68
2023/04/24 10:25:36;;;;;;;2.17;1.50;;;20.60;72.50;;;20.86;nan;99905.97;5014494;28;20665;-70
2023/04/24 10:28:04;;;;;;;2.50;1.60;;;20.50;71.30;;;20.56;nan;99907.16;5014526;28;21195;-68
2023/04/24 10:30:37;;;;;;;0.50;0.47;;;20.30;71.50;;;20.31;nan;99904.13;5014544;28;20630;-68
2023/04/24 10:33:06;;;;;;;1.60;1.50;;;20.20;71.70;;;20.14;nan;99906.16;5014355;28;21048;-68
2023/04/24 10:35:45;;;;;;;2.13;1.37;;;20.00;72.00;;;19.91;nan;99900.22;5013655;28;20661;-68